Time;durP1;ratioP1;P1;durP2;ratioP2;P2;SDS_P1;SDS_P2;PMS_P1;PMS_P2;Temp;Humidity;BMP_temperature;BMP_pressure;BME280_temperature;BME280_humidity;BME280_pressure;Samples;Min_cycle;Max_cycle;Signal;HPM_P1;HPM_P2
2022/11/01 00:02:27;;;;;;;17.03;12.33;;;10.00;99.90;;;;;;5077204;28;20879;-80
2022/11/01 00:04:54;;;;;;;18.17;12.50;;;10.00;99.90;;;;;;5076358;28;21180;-80
2022/11/01 00:07:21;;;;;;;15.93;11.43;;;9.90;99.90;;;;;;5081652;28;20546;-80
2022/11/01 00:09:48;;;;;;;19.80;12.73;;;10.00;99.90;;;;;;5079021;28;20494;-80
2022/11/01 00:12:15;;;;;;;14.70;11.13;;;10.10;99.90;;;;;;5077320;28;20548;-80
2022/11/01 00:14:42;;;;;;;17.20;11.37;;;10.10;99.90;;;;;;5073640;28;20559;-80
2022/11/01 00:17:09;;;;;;;17.53;13.60;;;10.10;99.90;;;;;;5076926;28;20486;-80
2022/11/01 00:19:37;;;;;;;17.27;10.57;;;10.10;99.90;;;;;;5074737;28;21229;-80
2022/11/01 00:22:04;;;;;;;16.20;12.37;;;10.00;99.90;;;;;;5080989;28;20462;-80
2022/11/01 00:24:31;;;;;;;16.97;11.07;;;10.00;99.90;;;;;;5072493;28;20514;-80
2022/11/01 00:26:59;;;;;;;20.03;11.73;;;9.90;99.90;;;;;;5082471;28;20491;-80
2022/11/01 00:29:26;;;;;;;14.50;10.53;;;9.90;99.90;;;;;;5077820;28;20552;-80
2022/11/01 00:31:53;;;;;;;16.10;11.87;;;9.90;99.90;;;;;;5078805;28;20605;-80
2022/11/01 00:34:20;;;;;;;17.53;12.03;;;9.90;99.90;;;;;;5075811;28;20552;-80
2022/11/01 00:36:48;;;;;;;15.23;10.43;;;9.90;99.90;;;;;;5091560;28;20526;-80
2022/11/01 00:39:16;;;;;;;16.10;12.17;;;10.00;99.90;;;;;;5076446;28;21178;-80
2022/11/01 00:41:43;;;;;;;25.13;11.43;;;9.90;99.90;;;;;;5074403;28;20519;-80
2022/11/01 00:44:10;;;;;;;15.07;10.70;;;10.00;99.90;;;;;;5077030;28;20462;-80
2022/11/01 00:46:37;;;;;;;15.33;11.10;;;9.90;99.90;;;;;;5088958;28;20454;-80
2022/11/01 00:49:04;;;;;;;18.00;11.40;;;9.90;99.90;;;;;;5088695;28;20548;-80
2022/11/01 00:51:31;;;;;;;15.27;9.97;;;9.90;99.90;;;;;;5107725;28;20493;-80
2022/11/01 00:53:59;;;;;;;16.80;11.13;;;9.90;99.90;;;;;;5087469;28;20467;-80
2022/11/01 00:56:26;;;;;;;15.90;12.60;;;9.90;99.90;;;;;;5090089;28;20544;-80
2022/11/01 00:58:53;;;;;;;15.80;12.00;;;9.80;99.90;;;;;;5084278;28;21047;-80
2022/11/01 01:01:20;;;;;;;15.10;10.87;;;9.90;99.90;;;;;;5090138;28;20986;-80
2022/11/01 01:03:47;;;;;;;14.40;10.10;;;9.80;99.90;;;;;;5084725;28;20463;-80
2022/11/01 01:06:14;;;;;;;17.13;10.27;;;9.80;99.90;;;;;;5098696;28;20458;-80
2022/11/01 01:08:41;;;;;;;12.90;9.40;;;9.80;99.90;;;;;;5092674;28;20462;-80
2022/11/01 01:11:09;;;;;;;14.93;10.30;;;9.70;99.90;;;;;;5089415;28;20459;-80
2022/11/01 01:13:36;;;;;;;14.10;9.40;;;9.70;99.90;;;;;;5101338;28;20518;-80
2022/11/01 01:16:08;;;;;;;15.00;10.27;;;9.80;99.90;;;;;;5095313;28;20482;-80
2022/11/01 01:18:35;;;;;;;15.77;9.67;;;9.80;99.90;;;;;;5092809;28;20549;-81
2022/11/01 01:21:04;;;;;;;18.03;11.70;;;9.80;99.90;;;;;;5092579;28;20527;-81
2022/11/01 01:23:31;;;;;;;13.60;9.53;;;9.90;99.90;;;;;;5101698;28;20523;-81
2022/11/01 01:25:58;;;;;;;17.50;10.50;;;9.80;99.90;;;;;;5101649;28;20510;-80
2022/11/01 01:28:26;;;;;;;16.50;10.60;;;9.80;99.90;;;;;;5093413;28;20478;-81
2022/11/01 01:30:53;;;;;;;16.67;10.50;;;9.80;99.90;;;;;;5098975;28;20450;-80
2022/11/01 01:33:20;;;;;;;18.13;11.03;;;9.70;99.90;;;;;;5103297;28;20461;-81
2022/11/01 01:35:47;;;;;;;14.53;11.17;;;9.80;99.90;;;;;;5092862;28;20486;-81
2022/11/01 01:38:14;;;;;;;13.43;8.60;;;9.80;99.90;;;;;;5091495;28;20856;-80
2022/11/01 01:40:41;;;;;;;13.40;9.00;;;9.80;99.90;;;;;;5098365;28;20952;-81
2022/11/01 01:43:11;;;;;;;18.27;10.63;;;9.70;99.90;;;;;;5093364;28;20463;-81
2022/11/01 01:45:41;;;;;;;13.77;10.40;;;9.70;99.90;;;;;;5096409;28;20450;-80
2022/11/01 01:48:16;;;;;;;17.23;10.00;;;9.70;99.90;;;;;;5093980;28;20844;-80
2022/11/01 01:50:48;;;;;;;19.30;10.43;;;9.80;99.90;;;;;;5094735;28;20976;-81
2022/11/01 01:53:20;;;;;;;13.87;9.70;;;9.70;99.90;;;;;;5092922;28;20510;-81
2022/11/01 01:55:52;;;;;;;12.67;9.70;;;9.80;99.90;;;;;;5091970;28;20546;-81
2022/11/01 01:58:23;;;;;;;13.77;9.93;;;9.70;99.90;;;;;;5092920;28;20975;-81
2022/11/01 02:00:53;;;;;;;14.83;9.07;;;9.70;99.90;;;;;;5091683;28;20537;-80
2022/11/01 02:03:22;;;;;;;13.70;10.80;;;9.70;99.90;;;;;;5081572;28;20549;-83
2022/11/01 02:05:53;;;;;;;13.27;9.20;;;9.70;99.90;;;;;;5085886;28;20458;-82
2022/11/01 02:08:27;;;;;;;13.40;8.87;;;9.70;99.90;;;;;;5086774;28;20465;-86
2022/11/01 02:10:58;;;;;;;18.07;10.20;;;9.70;99.90;;;;;;5087410;28;20501;-82
2022/11/01 02:13:26;;;;;;;13.93;10.23;;;9.70;99.90;;;;;;5090222;28;20454;-82
2022/11/01 02:16:30;;;;;;;12.40;9.60;;;9.60;99.90;;;;;;5089924;28;20536;-82
2022/11/01 02:19:10;;;;;;;18.50;9.07;;;9.60;99.90;;;;;;5090019;28;20469;-79
2022/11/01 02:21:51;;;;;;;12.60;8.80;;;9.70;99.90;;;;;;5095463;28;20474;-79
2022/11/01 02:24:56;;;;;;;14.33;9.20;;;9.60;99.90;;;;;;5099364;28;20458;-79
2022/11/01 02:27:30;;;;;;;14.07;8.50;;;9.60;99.90;;;;;;5071713;28;20498;-79
2022/11/01 02:30:15;;;;;;;12.03;8.80;;;9.60;99.90;;;;;;5092726;28;20459;-79
2022/11/01 02:33:13;;;;;;;12.97;9.83;;;9.60;99.90;;;;;;5093322;28;20465;-79
2022/11/01 02:35:48;;;;;;;17.00;9.73;;;9.70;99.90;;;;;;5096632;28;20457;-79
2022/11/01 02:38:21;;;;;;;15.47;10.10;;;9.70;99.90;;;;;;5096649;28;20462;-79
2022/11/01 02:40:56;;;;;;;17.47;9.77;;;9.60;99.90;;;;;;5096915;28;20871;-79
2022/11/01 02:43:29;;;;;;;11.13;9.97;;;9.70;99.90;;;;;;5098969;28;20484;-79
2022/11/01 02:46:59;;;;;;;10.30;8.43;;;9.70;99.90;;;;;;5093685;28;20925;-79
2022/11/01 02:48:48;;;;;;;11.80;8.83;;;9.70;99.90;;;;;;5089582;28;20548;-79
2022/11/01 02:51:19;;;;;;;12.20;9.83;;;9.80;99.90;;;;;;5095082;28;20462;-79
2022/11/01 02:53:46;;;;;;;13.73;9.03;;;9.90;99.90;;;;;;5088620;28;20463;-79
2022/11/01 02:56:14;;;;;;;14.40;8.90;;;9.80;99.90;;;;;;5116300;28;20477;-79
2022/11/01 02:58:41;;;;;;;14.57;9.33;;;9.70;99.90;;;;;;5096741;28;20459;-79
2022/11/01 03:01:15;;;;;;;11.97;9.60;;;9.70;99.90;;;;;;5101484;28;20470;-79
2022/11/01 03:03:45;;;;;;;13.63;9.47;;;9.70;99.90;;;;;;5083445;28;20544;-79
2022/11/01 03:06:21;;;;;;;11.43;8.60;;;9.60;99.90;;;;;;5099001;28;20533;-79
2022/11/01 03:08:52;;;;;;;11.63;9.13;;;9.60;99.90;;;;;;5092272;28;20462;-79
2022/11/01 03:11:21;;;;;;;12.27;8.40;;;9.60;99.90;;;;;;5095463;28;21226;-79
2022/11/01 03:13:59;;;;;;;13.60;8.87;;;9.60;99.90;;;;;;5099987;28;20991;-79
2022/11/01 03:16:33;;;;;;;14.13;9.07;;;9.50;99.90;;;;;;5093975;28;20475;-79
2022/11/01 03:19:07;;;;;;;11.60;8.50;;;9.60;99.90;;;;;;5102544;28;21193;-79
2022/11/01 03:21:40;;;;;;;12.80;7.90;;;9.70;99.90;;;;;;5096076;28;20922;-79
2022/11/01 03:24:16;;;;;;;10.63;8.53;;;9.70;99.90;;;;;;5092371;28;20454;-79
2022/11/01 03:26:45;;;;;;;8.67;7.20;;;9.60;99.90;;;;;;5095523;28;21120;-79
2022/11/01 03:29:15;;;;;;;10.77;7.43;;;9.70;99.90;;;;;;5085906;28;20451;-79
2022/11/01 03:31:44;;;;;;;11.80;9.00;;;9.70;99.90;;;;;;5085942;28;20462;-79
2022/11/01 03:34:15;;;;;;;13.67;8.27;;;9.70;99.90;;;;;;5096729;28;20515;-79
2022/11/01 03:36:49;;;;;;;12.13;7.70;;;9.70;99.90;;;;;;5085296;28;20510;-79
2022/11/01 03:39:21;;;;;;;8.17;7.20;;;9.70;99.90;;;;;;5085033;28;20518;-79
2022/11/01 03:41:53;;;;;;;9.33;8.10;;;9.70;99.90;;;;;;5102418;28;20510;-79
2022/11/01 03:44:20;;;;;;;11.63;8.30;;;9.70;99.90;;;;;;5098900;28;20470;-79
2022/11/01 03:46:47;;;;;;;15.77;8.60;;;9.70;99.90;;;;;;5090248;28;20573;-79
2022/11/01 03:49:18;;;;;;;12.07;7.40;;;9.70;99.90;;;;;;5105137;27;20450;-79
2022/11/01 03:51:46;;;;;;;12.10;8.07;;;9.70;99.90;;;;;;5098531;28;20466;-79
2022/11/01 03:54:13;;;;;;;13.13;8.43;;;9.70;99.90;;;;;;5096381;28;20462;-79
2022/11/01 03:56:40;;;;;;;9.60;8.23;;;9.80;99.90;;;;;;5098674;28;20482;-79
2022/11/01 03:59:08;;;;;;;17.17;9.80;;;9.80;99.90;;;;;;5103935;28;20454;-79
2022/11/01 04:01:35;;;;;;;15.33;8.50;;;9.70;99.90;;;;;;5094226;28;20463;-79
2022/11/01 04:04:02;;;;;;;12.10;9.83;;;9.60;99.90;;;;;;5097846;28;20855;-79
2022/11/01 04:06:30;;;;;;;12.17;8.80;;;9.70;99.90;;;;;;5096318;28;20968;-79
2022/11/01 04:08:58;;;;;;;11.80;8.60;;;9.60;99.90;;;;;;5099925;28;20985;-79
2022/11/01 04:11:25;;;;;;;9.77;8.07;;;9.60;99.90;;;;;;5098586;28;20462;-79
2022/11/01 04:20:31;;;;;;;12.40;9.00;;;9.70;99.90;;;;;;5087624;28;20779;-79
2022/11/01 04:22:08;;;;;;;11.10;9.47;;;9.60;99.90;;;;;;5101251;28;20452;-79
2022/11/01 04:24:36;;;;;;;11.43;9.30;;;9.70;99.90;;;;;;5093414;28;20467;-79
2022/11/01 04:27:03;;;;;;;13.90;8.20;;;9.70;99.90;;;;;;5101806;28;20545;-79
2022/11/01 04:29:30;;;;;;;12.70;9.20;;;9.70;99.90;;;;;;5105435;28;20446;-79
2022/11/01 04:31:57;;;;;;;11.97;9.07;;;9.60;99.90;;;;;;5099482;28;20468;-79
2022/11/01 04:37:05;;;;;;;11.03;8.30;;;9.60;99.90;;;;;;5093114;28;20473;-79
2022/11/01 04:39:32;;;;;;;16.53;8.60;;;9.70;99.90;;;;;;5105068;28;20449;-79
2022/11/01 04:42:00;;;;;;;15.00;8.27;;;9.60;99.90;;;;;;5104098;28;21183;-79
2022/11/01 04:44:27;;;;;;;15.93;8.40;;;9.70;99.90;;;;;;5106236;28;20783;-80
2022/11/01 04:46:54;;;;;;;10.53;7.00;;;9.70;99.90;;;;;;5098126;28;20519;-79
2022/11/01 04:49:21;;;;;;;12.30;7.70;;;9.60;99.90;;;;;;5089255;28;20978;-79
2022/11/01 04:51:48;;;;;;;10.33;8.33;;;9.70;99.90;;;;;;5091815;28;20487;-79
2022/11/01 04:54:15;;;;;;;11.77;8.83;;;9.80;99.90;;;;;;5094291;28;20922;-79
2022/11/01 04:56:43;;;;;;;13.40;8.87;;;9.70;99.90;;;;;;5104244;28;20484;-79
2022/11/01 04:59:11;;;;;;;14.20;10.27;;;9.80;99.90;;;;;;5090355;28;20519;-79
2022/11/01 05:01:38;;;;;;;16.40;9.97;;;9.80;99.90;;;;;;5112905;28;20466;-80
2022/11/01 05:04:05;;;;;;;16.23;10.07;;;9.80;99.90;;;;;;5107401;28;20515;-79
2022/11/01 05:06:33;;;;;;;12.30;9.23;;;9.80;99.90;;;;;;5098315;28;20458;-79
2022/11/01 05:09:00;;;;;;;17.03;10.90;;;9.80;99.90;;;;;;5091802;28;20465;-79
2022/11/01 05:11:27;;;;;;;13.03;10.27;;;9.70;99.90;;;;;;5103138;28;20502;-79
2022/11/01 05:13:54;;;;;;;13.40;8.23;;;9.80;99.90;;;;;;5088317;28;20973;-79
2022/11/01 05:16:22;;;;;;;13.10;9.63;;;9.80;99.90;;;;;;5092430;28;20528;-79
2022/11/01 05:18:49;;;;;;;17.20;9.50;;;9.70;99.90;;;;;;5096751;28;20451;-79
2022/11/01 05:21:16;;;;;;;15.17;9.10;;;9.70;99.90;;;;;;5095010;28;20526;-79
2022/11/01 05:23:43;;;;;;;12.40;8.27;;;9.60;99.90;;;;;;5095484;28;20520;-79
2022/11/01 05:26:10;;;;;;;9.10;7.23;;;9.60;99.90;;;;;;5092138;28;20447;-79
2022/11/01 05:28:37;;;;;;;13.40;8.70;;;9.70;99.90;;;;;;5099200;28;20458;-79
2022/11/01 05:31:04;;;;;;;10.13;8.07;;;9.80;99.90;;;;;;5087116;28;20813;-79
2022/11/01 05:33:32;;;;;;;17.60;9.33;;;9.70;99.90;;;;;;5091666;28;20527;-79
2022/11/01 05:36:00;;;;;;;17.90;9.00;;;9.70;99.90;;;;;;5083675;28;20470;-79
2022/11/01 05:38:27;;;;;;;17.30;9.43;;;9.70;99.90;;;;;;5089903;28;20977;-79
2022/11/01 05:40:54;;;;;;;12.63;8.90;;;9.60;99.90;;;;;;5089523;28;20443;-79
2022/11/01 05:43:21;;;;;;;16.73;10.27;;;9.70;99.90;;;;;;5088061;28;20512;-78
2022/11/01 05:45:48;;;;;;;22.83;11.53;;;9.60;99.90;;;;;;5081849;28;20458;-79
2022/11/01 05:48:15;;;;;;;12.67;8.17;;;9.60;99.90;;;;;;5096299;28;21233;-79
2022/11/01 05:50:45;;;;;;;12.63;9.07;;;9.50;99.90;;;;;;5099832;28;20543;-79
2022/11/01 05:53:13;;;;;;;17.53;9.20;;;9.40;99.90;;;;;;5090073;28;20463;-79
2022/11/01 05:55:40;;;;;;;13.23;9.37;;;9.50;99.90;;;;;;5097688;28;20941;-79
2022/11/01 05:58:07;;;;;;;16.37;8.87;;;9.60;99.90;;;;;;5088790;28;21153;-79
2022/11/01 06:00:35;;;;;;;11.63;9.10;;;9.70;99.90;;;;;;5088900;28;20587;-80
2022/11/01 06:03:02;;;;;;;12.43;7.63;;;9.70;99.90;;;;;;5088707;28;20501;-80
2022/11/01 06:05:30;;;;;;;12.43;8.40;;;9.60;99.90;;;;;;5092171;28;21003;-80
2022/11/01 06:08:01;;;;;;;12.57;7.90;;;9.60;99.90;;;;;;5092154;28;20451;-80
2022/11/01 06:10:28;;;;;;;15.53;9.17;;;9.70;99.90;;;;;;5094628;28;20459;-80
2022/11/01 06:12:56;;;;;;;18.57;9.73;;;9.60;99.90;;;;;;5101765;28;20461;-80
2022/11/01 06:15:23;;;;;;;22.27;11.27;;;9.60;99.90;;;;;;5106480;28;20458;-80
2022/11/01 06:17:56;;;;;;;15.87;9.60;;;9.70;99.90;;;;;;5107445;28;20505;-80
2022/11/01 06:20:23;;;;;;;20.70;11.17;;;9.60;99.90;;;;;;5090803;28;20561;-80
2022/11/01 06:22:50;;;;;;;15.37;9.90;;;9.60;99.90;;;;;;5094871;28;20492;-81
2022/11/01 06:25:18;;;;;;;14.63;9.40;;;9.60;99.90;;;;;;5098022;28;21119;-80
2022/11/01 06:27:45;;;;;;;14.13;9.13;;;9.70;99.90;;;;;;5102361;28;20500;-80
2022/11/01 06:30:12;;;;;;;15.40;10.60;;;9.70;99.90;;;;;;5088513;28;20470;-80
2022/11/01 06:32:39;;;;;;;17.67;10.60;;;9.70;99.90;;;;;;5086050;28;20467;-80
2022/11/01 06:35:07;;;;;;;23.87;11.17;;;9.80;99.90;;;;;;5093436;28;20929;-80
2022/11/01 06:37:34;;;;;;;46.93;14.63;;;9.90;99.90;;;;;;5091966;28;20546;-80
2022/11/01 06:40:01;;;;;;;12.40;9.17;;;9.90;99.90;;;;;;5098214;28;20892;-80
2022/11/01 06:42:29;;;;;;;15.53;8.50;;;9.90;99.90;;;;;;5089394;28;20914;-81
2022/11/01 06:44:56;;;;;;;11.53;8.77;;;9.90;99.90;;;;;;5095885;28;20879;-81
2022/11/01 06:47:24;;;;;;;11.53;9.33;;;9.90;99.90;;;;;;5094028;28;20512;-81
2022/11/01 06:49:51;;;;;;;10.80;7.57;;;9.90;99.90;;;;;;5090951;28;20447;-81
2022/11/01 06:52:18;;;;;;;15.40;8.60;;;9.90;99.90;;;;;;5087490;28;20462;-81
2022/11/01 06:54:44;;;;;;;11.47;6.90;;;9.90;99.90;;;;;;5092891;28;20470;-81
2022/11/01 06:57:11;;;;;;;10.60;7.83;;;10.10;99.90;;;;;;5088661;28;20482;-81
2022/11/01 06:59:40;;;;;;;13.67;8.10;;;10.10;99.90;;;;;;5087894;28;20504;-81
2022/11/01 07:02:09;;;;;;;12.13;7.60;;;10.10;99.90;;;;;;5094564;28;20952;-81
2022/11/01 07:04:36;;;;;;;11.93;7.00;;;10.10;99.90;;;;;;5089758;28;20462;-81
2022/11/01 07:07:03;;;;;;;8.03;7.23;;;10.10;99.90;;;;;;5112230;28;20519;-81
2022/11/01 07:09:30;;;;;;;10.47;7.33;;;10.00;99.90;;;;;;5095895;28;20454;-81
2022/11/01 07:11:58;;;;;;;9.70;6.47;;;10.00;99.90;;;;;;5095982;28;20505;-81
2022/11/01 07:14:24;;;;;;;12.03;7.73;;;10.20;99.90;;;;;;5100994;28;20994;-81
2022/11/01 07:16:53;;;;;;;8.20;6.10;;;10.30;99.90;;;;;;5096585;28;20477;-81
2022/11/01 07:19:21;;;;;;;8.90;7.17;;;10.20;99.90;;;;;;5088937;28;20554;-81
2022/11/01 07:21:48;;;;;;;6.13;5.53;;;10.30;99.90;;;;;;5087709;28;20467;-83
2022/11/01 07:24:15;;;;;;;10.43;6.47;;;10.40;99.90;;;;;;5085872;28;20486;-81
2022/11/01 07:26:42;;;;;;;8.43;6.00;;;10.20;99.90;;;;;;5086035;28;20457;-81
2022/11/01 07:29:09;;;;;;;13.70;7.03;;;10.20;99.90;;;;;;5088760;28;20455;-81
2022/11/01 07:31:37;;;;;;;8.03;5.30;;;10.40;99.90;;;;;;5085574;28;20458;-81
2022/11/01 07:34:06;;;;;;;6.90;6.20;;;10.20;99.90;;;;;;5086498;28;20455;-82
2022/11/01 07:36:33;;;;;;;8.30;6.87;;;10.20;99.90;;;;;;5089931;28;20547;-81
2022/11/01 07:39:00;;;;;;;6.00;5.03;;;10.30;99.90;;;;;;5085920;28;20906;-81
2022/11/01 07:41:27;;;;;;;9.13;6.07;;;10.20;99.90;;;;;;5088965;28;20475;-81
2022/11/01 07:43:54;;;;;;;9.93;6.77;;;10.30;99.90;;;;;;5086071;28;20458;-81
2022/11/01 07:46:21;;;;;;;12.70;5.63;;;10.40;99.90;;;;;;5085102;28;20512;-81
2022/11/01 07:48:49;;;;;;;10.00;6.50;;;10.30;99.90;;;;;;5083598;28;20463;-82
2022/11/01 07:51:18;;;;;;;8.17;6.17;;;10.40;99.90;;;;;;5085897;28;20949;-81
2022/11/01 07:53:45;;;;;;;8.37;6.20;;;10.50;99.90;;;;;;5086135;28;20467;-81
2022/11/01 07:56:12;;;;;;;7.70;6.00;;;10.60;99.90;;;;;;5087457;28;20992;-81
2022/11/01 07:58:42;;;;;;;7.90;6.07;;;10.60;99.90;;;;;;5083143;28;21054;-82
2022/11/01 08:01:09;;;;;;;11.40;8.27;;;10.60;99.90;;;;;;5084340;28;20550;-80
2022/11/01 08:03:36;;;;;;;8.67;7.03;;;10.50;99.90;;;;;;5084943;28;20504;-79
2022/11/01 08:06:03;;;;;;;8.33;6.33;;;10.60;99.90;;;;;;5088866;28;20458;-79
2022/11/01 08:08:31;;;;;;;6.10;4.73;;;10.70;99.90;;;;;;5096619;28;20528;-80
2022/11/01 08:11:00;;;;;;;8.90;8.00;;;10.70;99.90;;;;;;5083141;28;20459;-79
2022/11/01 08:13:27;;;;;;;10.17;8.10;;;10.80;99.90;;;;;;5083361;28;20473;-79
2022/11/01 08:15:54;;;;;;;9.10;6.67;;;10.60;99.90;;;;;;5084194;28;20512;-81
2022/11/01 08:18:23;;;;;;;6.43;5.67;;;10.70;99.90;;;;;;5081164;28;21381;-80
2022/11/01 08:20:50;;;;;;;9.40;7.73;;;10.70;99.90;;;;;;5083839;28;20512;-82
2022/11/01 08:23:17;;;;;;;10.60;8.17;;;10.70;99.90;;;;;;5092009;28;20510;-82
2022/11/01 08:25:46;;;;;;;7.73;6.90;;;10.90;99.90;;;;;;5085804;27;20471;-81
2022/11/01 08:28:15;;;;;;;5.10;4.60;;;11.10;99.90;;;;;;5091284;28;20543;-81
2022/11/01 08:30:44;;;;;;;5.63;4.40;;;11.20;99.90;;;;;;5091088;28;20524;-81
2022/11/01 08:33:11;;;;;;;6.30;4.90;;;11.30;99.90;;;;;;5087397;28;20534;-82
2022/11/01 08:35:38;;;;;;;6.23;5.73;;;11.30;99.90;;;;;;5085948;27;20473;-79
2022/11/01 08:38:06;;;;;;;5.00;4.50;;;11.40;99.90;;;;;;5084453;28;21005;-80
2022/11/01 08:40:33;;;;;;;6.70;5.47;;;11.20;99.90;;;;;;5086570;28;20516;-79
2022/11/01 08:43:02;;;;;;;5.73;5.20;;;11.10;99.90;;;;;;5084389;28;20679;-80
2022/11/01 08:45:29;;;;;;;6.97;4.60;;;11.10;99.90;;;;;;5084545;28;20466;-80
2022/11/01 08:48:00;;;;;;;6.90;5.07;;;11.00;99.90;;;;;;5087270;28;20806;-79
2022/11/01 08:50:27;;;;;;;5.70;4.80;;;11.00;99.90;;;;;;5085701;27;20462;-80
2022/11/01 08:52:54;;;;;;;14.23;10.93;;;11.00;99.90;;;;;;5084149;27;20463;-80
2022/11/01 08:55:21;;;;;;;5.73;4.87;;;11.00;99.90;;;;;;5085667;28;20463;-80
2022/11/01 08:57:48;;;;;;;8.10;6.27;;;11.00;99.90;;;;;;5088085;27;20862;-80
2022/11/01 09:00:18;;;;;;;10.70;7.90;;;10.80;99.90;;;;;;5084912;28;20466;-80
2022/11/01 09:02:45;;;;;;;6.60;5.93;;;10.80;99.90;;;;;;5090158;28;20515;-80
2022/11/01 09:05:12;;;;;;;13.63;9.43;;;10.80;99.90;;;;;;5085992;28;21157;-80
2022/11/01 09:07:40;;;;;;;12.60;8.07;;;10.70;99.90;;;;;;5091534;28;20531;-80
2022/11/01 09:10:09;;;;;;;10.03;6.30;;;10.80;99.90;;;;;;5092643;28;20462;-80
2022/11/01 09:12:36;;;;;;;18.23;12.10;;;10.90;99.90;;;;;;5095318;28;20516;-80
2022/11/01 09:15:03;;;;;;;21.00;13.90;;;11.00;99.90;;;;;;5087962;28;21155;-80
2022/11/01 09:17:32;;;;;;;10.50;8.43;;;11.10;99.90;;;;;;5088811;28;20529;-80
2022/11/01 09:19:59;;;;;;;8.03;5.53;;;11.10;99.90;;;;;;5088636;27;20514;-80
2022/11/01 09:22:26;;;;;;;8.60;5.60;;;11.10;99.90;;;;;;5092922;28;20466;-79
2022/11/01 09:24:54;;;;;;;9.53;7.60;;;11.10;99.90;;;;;;5087882;28;20541;-80
2022/11/01 09:27:21;;;;;;;8.10;7.30;;;11.20;99.90;;;;;;5087515;28;20494;-81
2022/11/01 09:29:48;;;;;;;17.93;14.37;;;11.20;99.90;;;;;;5082012;28;20519;-84
2022/11/01 09:32:15;;;;;;;11.00;8.03;;;11.30;99.90;;;;;;5085300;28;21023;-81
2022/11/01 09:34:45;;;;;;;13.20;9.33;;;11.30;99.90;;;;;;5090484;28;20470;-81
2022/11/01 09:37:12;;;;;;;13.83;10.73;;;11.50;99.90;;;;;;5083741;28;20467;-80
2022/11/01 09:39:39;;;;;;;18.20;12.33;;;11.60;99.90;;;;;;5084393;28;20560;-78
2022/11/01 09:42:11;;;;;;;10.90;7.83;;;11.60;99.90;;;;;;5086804;28;20526;-78
2022/11/01 09:44:43;;;;;;;15.50;11.70;;;11.50;99.90;;;;;;5085583;28;20474;-80
2022/11/01 09:47:16;;;;;;;17.77;11.43;;;11.90;99.90;;;;;;5088394;28;20463;-80
2022/11/01 09:49:48;;;;;;;20.50;15.90;;;12.00;99.90;;;;;;5088061;28;20507;-80
2022/11/01 09:52:20;;;;;;;53.40;24.67;;;12.20;99.90;;;;;;5087740;28;20459;-80
2022/11/01 09:54:47;;;;;;;23.90;15.47;;;12.30;99.90;;;;;;5092059;28;20454;-81
2022/11/01 09:57:20;;;;;;;28.10;17.33;;;12.20;99.90;;;;;;5087376;28;20515;-81
2022/11/01 09:59:53;;;;;;;12.63;11.33;;;12.30;99.90;;;;;;5088600;28;20478;-81
2022/11/01 10:02:57;;;;;;;10.57;9.03;;;12.30;99.90;;;;;;5084290;28;20524;-80
2022/11/01 10:05:51;;;;;;;7.40;6.27;;;12.20;99.90;;;;;;5085606;28;21629;-80
2022/11/01 10:08:28;;;;;;;8.37;6.87;;;12.10;99.90;;;;;;5084161;28;20905;-81
2022/11/01 10:11:29;;;;;;;10.03;9.07;;;12.00;99.90;;;;;;5086000;28;20543;-81
2022/11/01 10:14:05;;;;;;;11.50;8.30;;;11.70;99.90;;;;;;5082562;28;20884;-80
2022/11/01 10:16:36;;;;;;;10.63;8.70;;;11.90;99.90;;;;;;5085510;28;20559;-81
2022/11/01 10:19:10;;;;;;;14.47;9.53;;;12.10;99.90;;;;;;5082505;28;20605;-81
2022/11/01 10:21:43;;;;;;;12.20;8.17;;;12.20;99.90;;;;;;5084050;28;20515;-80
2022/11/01 10:24:20;;;;;;;10.00;8.50;;;12.30;99.90;;;;;;5080067;28;20462;-81
2022/11/01 10:26:50;;;;;;;6.97;6.03;;;12.60;99.90;;;;;;5089181;28;20829;-80
2022/11/01 10:29:23;;;;;;;12.43;8.13;;;12.50;99.90;;;;;;5076748;28;20604;-80
2022/11/01 10:31:53;;;;;;;6.53;5.67;;;12.60;99.90;;;;;;5075553;28;20495;-81
2022/11/01 10:34:23;;;;;;;8.93;5.70;;;12.80;99.90;;;;;;5078670;28;22100;-81
2022/11/01 10:36:56;;;;;;;9.33;5.70;;;12.80;99.90;;;;;;5077695;28;20471;-80
2022/11/01 10:39:33;;;;;;;10.53;6.97;;;12.90;99.90;;;;;;5075998;28;20568;-80
2022/11/01 10:42:08;;;;;;;8.23;6.13;;;12.80;99.90;;;;;;5077110;28;20802;-80
2022/11/01 10:44:40;;;;;;;8.37;6.00;;;12.90;99.90;;;;;;5076784;28;20502;-80
2022/11/01 10:47:11;;;;;;;6.40;5.50;;;13.00;99.90;;;;;;5088783;28;20459;-81
2022/11/01 10:49:45;;;;;;;6.70;5.57;;;13.10;99.90;;;;;;5088390;28;20463;-81
2022/11/01 10:52:18;;;;;;;7.70;5.40;;;13.20;99.90;;;;;;5091195;28;20467;-81
2022/11/01 10:54:46;;;;;;;6.10;4.70;;;13.30;99.90;;;;;;5095639;28;20439;-81
2022/11/01 10:57:23;;;;;;;9.97;5.93;;;13.30;99.90;;;;;;5085898;28;20923;-81
2022/11/01 10:59:51;;;;;;;9.83;6.30;;;13.40;99.90;;;;;;5084210;28;20579;-82
2022/11/01 11:02:23;;;;;;;7.30;6.63;;;13.20;99.90;;;;;;5088399;28;20457;-81
2022/11/01 11:04:51;;;;;;;6.57;5.40;;;13.00;99.90;;;;;;5085862;27;20551;-79
2022/11/01 11:07:20;;;;;;;12.83;7.07;;;13.10;99.90;;;;;;5085269;28;20469;-80
2022/11/01 11:09:49;;;;;;;8.10;6.50;;;13.00;99.90;;;;;;5086749;28;20965;-80
2022/11/01 11:12:19;;;;;;;6.27;5.70;;;13.20;99.90;;;;;;5088169;28;20465;-82
2022/11/01 11:14:48;;;;;;;9.80;5.90;;;13.30;99.90;;;;;;5098863;27;20489;-82
2022/11/01 11:17:22;;;;;;;7.47;6.57;;;13.40;99.90;;;;;;5093901;28;20524;-80
2022/11/01 11:19:52;;;;;;;9.90;6.17;;;13.40;99.90;;;;;;5086207;28;20512;-80
2022/11/01 11:22:23;;;;;;;8.53;7.20;;;13.10;99.90;;;;;;5091125;28;20838;-80
2022/11/01 11:24:51;;;;;;;8.40;6.43;;;13.00;99.90;;;;;;5089422;28;21198;-80
2022/11/01 11:27:22;;;;;;;9.40;7.07;;;13.10;99.90;;;;;;5087216;28;20486;-79
2022/11/01 11:29:52;;;;;;;9.67;6.87;;;13.10;99.90;;;;;;5087298;28;20470;-80
2022/11/01 11:32:22;;;;;;;9.60;7.03;;;13.00;99.90;;;;;;5089219;28;20784;-79
2022/11/01 11:34:58;;;;;;;6.83;6.13;;;13.00;99.90;;;;;;5092671;28;20507;-80
2022/11/01 11:37:29;;;;;;;7.47;6.60;;;13.00;99.90;;;;;;5091449;27;20968;-80
2022/11/01 11:40:14;;;;;;;10.10;6.63;;;13.00;99.90;;;;;;5089333;28;20526;-82
2022/11/01 11:42:41;;;;;;;6.20;5.30;;;13.00;99.90;;;;;;5090090;28;20466;-81
2022/11/01 11:45:18;;;;;;;7.77;7.00;;;13.20;99.90;;;;;;5087934;27;20486;-81
2022/11/01 11:47:46;;;;;;;5.43;5.00;;;13.50;99.90;;;;;;5091543;28;20465;-81
2022/11/01 11:50:34;;;;;;;8.20;6.07;;;13.80;99.90;;;;;;5090602;27;20455;-81
2022/11/01 11:53:16;;;;;;;8.70;5.90;;;13.80;99.90;;;;;;5084687;27;21167;-81
2022/11/01 11:55:46;;;;;;;6.10;5.50;;;13.90;99.90;;;;;;5085344;28;20477;-81
2022/11/01 11:58:25;;;;;;;7.07;6.40;;;14.10;99.90;;;;;;5085318;28;20810;-81
2022/11/01 12:00:58;;;;;;;9.43;5.27;;;14.30;99.90;;;;;;5077794;28;20466;-81
2022/11/01 12:03:26;;;;;;;4.97;4.47;;;14.30;99.90;;;;;;5079950;28;21203;-81
2022/11/01 12:05:56;;;;;;;5.00;4.50;;;14.30;99.90;;;;;;5090667;27;20473;-81
2022/11/01 12:08:44;;;;;;;8.07;6.57;;;14.30;99.90;;;;;;5098235;27;20537;-81
2022/11/01 12:11:12;;;;;;;6.03;5.20;;;14.30;99.90;;;;;;5092501;28;20499;-81
2022/11/01 12:13:42;;;;;;;12.53;6.10;;;14.20;99.90;;;;;;5089895;28;20443;-80
2022/11/01 12:16:16;;;;;;;6.50;5.70;;;14.00;99.90;;;;;;5082466;28;20848;-81
2022/11/01 12:18:49;;;;;;;6.17;5.57;;;13.90;99.90;;;;;;5085274;28;20483;-81
2022/11/01 12:21:20;;;;;;;6.90;4.90;;;13.90;99.90;;;;;;5094049;28;20519;-81
2022/11/01 12:23:52;;;;;;;4.53;3.60;;;13.90;99.90;;;;;;5088284;28;20472;-81
2022/11/01 12:26:21;;;;;;;7.13;6.43;;;13.90;99.90;;;;;;5095156;28;20889;-81
2022/11/01 12:29:04;;;;;;;6.37;5.00;;;14.30;99.90;;;;;;5088323;28;20497;-81
2022/11/01 12:31:31;;;;;;;6.63;6.03;;;14.30;99.90;;;;;;5087555;27;20476;-81
2022/11/01 12:34:05;;;;;;;5.63;5.13;;;14.40;99.90;;;;;;5083733;28;20490;-81
2022/11/01 12:36:39;;;;;;;5.60;5.10;;;14.40;99.90;;;;;;5087301;28;20585;-81
2022/11/01 12:39:21;;;;;;;5.13;4.70;;;14.70;99.90;;;;;;5082051;28;20479;-81
2022/11/01 12:41:54;;;;;;;6.37;5.00;;;14.60;99.90;;;;;;5083420;28;20460;-81
2022/11/01 12:44:33;;;;;;;5.20;4.80;;;14.70;99.90;;;;;;5084290;27;21077;-81
2022/11/01 12:47:06;;;;;;;5.93;5.30;;;14.70;99.90;;;;;;5082795;28;20460;-81
2022/11/01 12:49:39;;;;;;;6.10;5.47;;;14.80;99.90;;;;;;5082851;28;20469;-80
2022/11/01 12:52:15;;;;;;;7.40;5.07;;;14.60;99.90;;;;;;5081405;28;20466;-80
2022/11/01 12:54:46;;;;;;;7.07;6.37;;;14.60;99.90;;;;;;5092355;27;21016;-80
2022/11/01 12:57:17;;;;;;;6.63;5.90;;;14.50;99.90;;;;;;5083487;28;20456;-80
2022/11/01 12:59:46;;;;;;;6.00;5.40;;;14.50;99.90;;;;;;5089702;28;20492;-80
2022/11/01 13:02:47;;;;;;;6.17;5.57;;;14.40;99.90;;;;;;5087190;28;21119;-80
2022/11/01 13:05:19;;;;;;;7.10;6.17;;;14.40;99.90;;;;;;5083057;28;20589;-81
2022/11/01 13:07:58;;;;;;;6.97;6.30;;;14.40;99.90;;;;;;5089235;27;20982;-80